sensor_id;sensor_type;location;lat;lon;timestamp;temperature;humidity
1205;DHT22;592;48.764;9.174;2022-08-03T06:41:21;23.90;99.90
1205;DHT22;592;48.764;9.174;2022-08-03T06:43:48;24.10;99.90
1205;DHT22;592;48.764;9.174;2022-08-03T06:46:15;24.30;99.90
1205;DHT22;592;48.764;9.174;2022-08-03T06:48:41;24.30;99.90
1205;DHT22;592;48.764;9.174;2022-08-03T06:51:08;24.50;99.90
1205;DHT22;592;48.764;9.174;2022-08-03T06:53:35;24.60;99.90
1205;DHT22;592;48.764;9.174;2022-08-03T06:56:03;24.70;99.90
1205;DHT22;592;48.764;9.174;2022-08-03T06:58:31;25.00;99.90
1205;DHT22;592;48.764;9.174;2022-08-03T07:00:58;25.10;99.90
1205;DHT22;592;48.764;9.174;2022-08-03T07:03:25;25.20;99.90
1205;DHT22;592;48.764;9.174;2022-08-03T07:05:52;25.30;99.90
1205;DHT22;592;48.764;9.174;2022-08-03T07:08:18;25.40;99.90
1205;DHT22;592;48.764;9.174;2022-08-03T07:10:45;25.50;99.90
1205;DHT22;592;48.764;9.174;2022-08-03T07:13:12;25.50;99.90
1205;DHT22;592;48.764;9.174;2022-08-03T07:15:40;25.60;99.90
1205;DHT22;592;48.764;9.174;2022-08-03T07:18:07;25.80;99.90
1205;DHT22;592;48.764;9.174;2022-08-03T07:20:33;26.00;99.90
1205;DHT22;592;48.764;9.174;2022-08-03T07:23:00;26.00;99.90
1205;DHT22;592;48.764;9.174;2022-08-03T07:25:26;26.10;99.90
1205;DHT22;592;48.764;9.174;2022-08-03T07:27:53;26.20;99.90
1205;DHT22;592;48.764;9.174;2022-08-03T07:30:20;26.30;99.80
1205;DHT22;592;48.764;9.174;2022-08-03T07:32:48;26.30;98.50
1205;DHT22;592;48.764;9.174;2022-08-03T07:35:14;26.20;99.00
1205;DHT22;592;48.764;9.174;2022-08-03T07:37:41;26.30;99.60
1205;DHT22;592;48.764;9.174;2022-08-03T07:40:08;26.50;99.00
1205;DHT22;592;48.764;9.174;2022-08-03T07:42:35;26.60;98.60
1205;DHT22;592;48.764;9.174;2022-08-03T07:45:01;26.60;98.00
1205;DHT22;592;48.764;9.174;2022-08-03T07:47:29;26.60;97.90
1205;DHT22;592;48.764;9.174;2022-08-03T07:49:57;26.80;98.10
1205;DHT22;592;48.764;9.174;2022-08-03T07:52:24;26.80;97.90
1205;DHT22;592;48.764;9.174;2022-08-03T07:55:09;27.00;97.90
1205;DHT22;592;48.764;9.174;2022-08-03T07:57:36;27.10;97.80
1205;DHT22;592;48.764;9.174;2022-08-03T08:00:04;27.20;97.90
1205;DHT22;592;48.764;9.174;2022-08-03T08:02:31;27.20;97.10
1205;DHT22;592;48.764;9.174;2022-08-03T08:04:59;27.30;97.30
1205;DHT22;592;48.764;9.174;2022-08-03T08:07:26;27.40;97.40
1205;DHT22;592;48.764;9.174;2022-08-03T08:09:53;27.50;97.40
1205;DHT22;592;48.764;9.174;2022-08-03T08:12:19;27.50;97.30
1205;DHT22;592;48.764;9.174;2022-08-03T08:14:46;27.60;96.40
1205;DHT22;592;48.764;9.174;2022-08-03T08:17:13;27.60;95.70
1205;DHT22;592;48.764;9.174;2022-08-03T08:19:40;27.70;95.40
1205;DHT22;592;48.764;9.174;2022-08-03T08:22:08;27.70;95.30
1205;DHT22;592;48.764;9.174;2022-08-03T08:24:35;27.70;93.70
1205;DHT22;592;48.764;9.174;2022-08-03T08:27:01;27.60;95.20
1205;DHT22;592;48.764;9.174;2022-08-03T08:29:28;27.60;92.20
1205;DHT22;592;48.764;9.174;2022-08-03T08:31:55;27.60;93.60
1205;DHT22;592;48.764;9.174;2022-08-03T08:34:22;27.80;94.30
1205;DHT22;592;48.764;9.174;2022-08-03T08:36:49;28.00;94.80
1205;DHT22;592;48.764;9.174;2022-08-03T08:39:17;28.10;94.30
1205;DHT22;592;48.764;9.174;2022-08-03T08:41:44;28.10;94.20
1205;DHT22;592;48.764;9.174;2022-08-03T08:44:10;28.10;93.50
1205;DHT22;592;48.764;9.174;2022-08-03T08:46:37;28.10;93.10
1205;DHT22;592;48.764;9.174;2022-08-03T08:49:07;28.10;93.40
1205;DHT22;592;48.764;9.174;2022-08-03T08:51:35;28.20;93.70
1205;DHT22;592;48.764;9.174;2022-08-03T08:54:06;28.10;93.20
1205;DHT22;592;48.764;9.174;2022-08-03T08:56:36;28.10;93.50
1205;DHT22;592;48.764;9.174;2022-08-03T08:59:04;28.10;93.40
1205;DHT22;592;48.764;9.174;2022-08-03T09:01:31;28.20;93.20
1205;DHT22;592;48.764;9.174;2022-08-03T09:03:57;28.20;93.30
1205;DHT22;592;48.764;9.174;2022-08-03T09:06:24;28.20;93.50
1205;DHT22;592;48.764;9.174;2022-08-03T09:08:51;28.20;93.50
1205;DHT22;592;48.764;9.174;2022-08-03T09:11:20;28.20;93.60
1205;DHT22;592;48.764;9.174;2022-08-03T09:13:49;28.40;93.30
1205;DHT22;592;48.764;9.174;2022-08-03T09:16:18;28.50;92.90
1205;DHT22;592;48.764;9.174;2022-08-03T09:18:46;28.40;92.90
1205;DHT22;592;48.764;9.174;2022-08-03T09:21:24;28.50;93.70
1205;DHT22;592;48.764;9.174;2022-08-03T09:23:53;28.70;93.30
1205;DHT22;592;48.764;9.174;2022-08-03T09:26:21;28.70;92.40
1205;DHT22;592;48.764;9.174;2022-08-03T09:28:55;28.80;92.00
1205;DHT22;592;48.764;9.174;2022-08-03T09:31:29;28.60;90.40
1205;DHT22;592;48.764;9.174;2022-08-03T09:33:57;28.60;90.40
1205;DHT22;592;48.764;9.174;2022-08-03T09:36:39;28.60;90.40
1205;DHT22;592;48.764;9.174;2022-08-03T09:39:08;28.50;90.10
1205;DHT22;592;48.764;9.174;2022-08-03T09:41:37;28.60;89.70
1205;DHT22;592;48.764;9.174;2022-08-03T09:44:06;28.60;88.40
1205;DHT22;592;48.764;9.174;2022-08-03T09:46:47;28.60;89.60
1205;DHT22;592;48.764;9.174;2022-08-03T09:49:13;28.90;89.90
1205;DHT22;592;48.764;9.174;2022-08-03T09:51:40;29.00;88.10
1205;DHT22;592;48.764;9.174;2022-08-03T09:54:07;29.10;87.40
1205;DHT22;592;48.764;9.174;2022-08-03T09:56:39;29.20;86.90
1205;DHT22;592;48.764;9.174;2022-08-03T09:59:08;29.20;88.30
1205;DHT22;592;48.764;9.174;2022-08-03T10:01:35;29.30;87.60
1205;DHT22;592;48.764;9.174;2022-08-03T10:04:03;29.30;86.70
1205;DHT22;592;48.764;9.174;2022-08-03T10:06:30;29.50;85.60
1205;DHT22;592;48.764;9.174;2022-08-03T10:09:05;29.30;85.10
1205;DHT22;592;48.764;9.174;2022-08-03T10:11:33;29.20;84.50
1205;DHT22;592;48.764;9.174;2022-08-03T10:14:02;29.30;86.40
1205;DHT22;592;48.764;9.174;2022-08-03T10:16:33;29.40;87.00
1205;DHT22;592;48.764;9.174;2022-08-03T10:19:00;29.50;86.40
1205;DHT22;592;48.764;9.174;2022-08-03T10:21:29;29.60;85.90
1205;DHT22;592;48.764;9.174;2022-08-03T10:23:56;29.50;81.00
1205;DHT22;592;48.764;9.174;2022-08-03T10:26:24;29.50;82.40
1205;DHT22;592;48.764;9.174;2022-08-03T10:28:53;29.50;85.10
1205;DHT22;592;48.764;9.174;2022-08-03T10:31:21;29.50;83.50
1205;DHT22;592;48.764;9.174;2022-08-03T10:33:51;29.50;84.40
1205;DHT22;592;48.764;9.174;2022-08-03T10:36:22;29.50;84.60
1205;DHT22;592;48.764;9.174;2022-08-03T10:38:51;29.50;84.80
1205;DHT22;592;48.764;9.174;2022-08-03T10:41:19;29.60;84.30
1205;DHT22;592;48.764;9.174;2022-08-03T10:43:49;29.50;82.80
1205;DHT22;592;48.764;9.174;2022-08-03T10:46:18;29.60;84.30
1205;DHT22;592;48.764;9.174;2022-08-03T10:48:45;29.50;82.70
1205;DHT22;592;48.764;9.174;2022-08-03T10:51:14;29.50;83.60
1205;DHT22;592;48.764;9.174;2022-08-03T10:53:42;29.70;83.60
1205;DHT22;592;48.764;9.174;2022-08-03T10:56:37;29.80;83.20
1205;DHT22;592;48.764;9.174;2022-08-03T11:03:08;30.00;81.60
1205;DHT22;592;48.764;9.174;2022-08-03T11:05:40;30.00;82.30
1205;DHT22;592;48.764;9.174;2022-08-03T11:08:31;30.10;80.30
1205;DHT22;592;48.764;9.174;2022-08-03T11:11:02;30.00;81.00
1205;DHT22;592;48.764;9.174;2022-08-03T11:13:58;29.90;81.50
1205;DHT22;592;48.764;9.174;2022-08-03T11:16:28;29.80;82.10
1205;DHT22;592;48.764;9.174;2022-08-03T11:18:56;29.80;81.10
1205;DHT22;592;48.764;9.174;2022-08-03T11:21:54;29.90;81.80
1205;DHT22;592;48.764;9.174;2022-08-03T11:24:55;29.80;81.70
1205;DHT22;592;48.764;9.174;2022-08-03T11:27:22;29.90;82.80
1205;DHT22;592;48.764;9.174;2022-08-03T11:29:59;30.00;82.20
1205;DHT22;592;48.764;9.174;2022-08-03T11:35:33;29.60;82.20
1205;DHT22;592;48.764;9.174;2022-08-03T11:38:05;30.00;83.40
1205;DHT22;592;48.764;9.174;2022-08-03T11:40:38;30.10;80.70
1205;DHT22;592;48.764;9.174;2022-08-03T11:43:06;30.00;81.60
1205;DHT22;592;48.764;9.174;2022-08-03T11:45:35;30.00;80.10
1205;DHT22;592;48.764;9.174;2022-08-03T11:48:12;30.00;80.50
1205;DHT22;592;48.764;9.174;2022-08-03T11:50:40;30.10;81.80
1205;DHT22;592;48.764;9.174;2022-08-03T11:53:13;30.30;81.60
1205;DHT22;592;48.764;9.174;2022-08-03T11:55:40;30.30;80.50
1205;DHT22;592;48.764;9.174;2022-08-03T11:58:14;30.30;79.70
1205;DHT22;592;48.764;9.174;2022-08-03T12:00:42;30.30;81.60
1205;DHT22;592;48.764;9.174;2022-08-03T12:03:11;30.30;80.50
1205;DHT22;592;48.764;9.174;2022-08-03T12:05:44;30.50;81.30
1205;DHT22;592;48.764;9.174;2022-08-03T12:08:12;30.80;80.80
1205;DHT22;592;48.764;9.174;2022-08-03T12:10:44;30.80;79.70
1205;DHT22;592;48.764;9.174;2022-08-03T12:13:11;30.80;80.60
1205;DHT22;592;48.764;9.174;2022-08-03T12:15:38;30.90;80.60
1205;DHT22;592;48.764;9.174;2022-08-03T12:18:14;31.00;79.90
1205;DHT22;592;48.764;9.174;2022-08-03T12:20:42;30.90;79.30
1205;DHT22;592;48.764;9.174;2022-08-03T12:23:10;31.10;79.30
1205;DHT22;592;48.764;9.174;2022-08-03T12:25:38;30.90;79.50
1205;DHT22;592;48.764;9.174;2022-08-03T12:28:11;30.60;78.10
1205;DHT22;592;48.764;9.174;2022-08-03T12:30:41;30.80;80.00
1205;DHT22;592;48.764;9.174;2022-08-03T12:33:18;31.00;79.70
1205;DHT22;592;48.764;9.174;2022-08-03T12:35:47;31.10;79.60
1205;DHT22;592;48.764;9.174;2022-08-03T12:38:20;31.10;80.40
1205;DHT22;592;48.764;9.174;2022-08-03T12:40:55;31.20;78.90
1205;DHT22;592;48.764;9.174;2022-08-03T12:43:22;31.10;78.50
1205;DHT22;592;48.764;9.174;2022-08-03T12:45:49;30.80;78.40
1205;DHT22;592;48.764;9.174;2022-08-03T12:48:17;30.90;79.60
1205;DHT22;592;48.764;9.174;2022-08-03T12:50:43;31.00;78.90
1205;DHT22;592;48.764;9.174;2022-08-03T12:53:10;31.00;78.90
1205;DHT22;592;48.764;9.174;2022-08-03T12:55:37;31.00;78.60
1205;DHT22;592;48.764;9.174;2022-08-03T12:58:05;31.10;78.90
1205;DHT22;592;48.764;9.174;2022-08-03T13:00:34;31.20;78.50
1205;DHT22;592;48.764;9.174;2022-08-03T13:03:03;31.30;78.60
1205;DHT22;592;48.764;9.174;2022-08-03T13:05:41;31.40;78.10
1205;DHT22;592;48.764;9.174;2022-08-03T13:08:17;31.50;79.70
1205;DHT22;592;48.764;9.174;2022-08-03T13:10:44;31.80;79.00
1205;DHT22;592;48.764;9.174;2022-08-03T13:13:11;31.90;77.60
1205;DHT22;592;48.764;9.174;2022-08-03T13:15:38;31.60;76.80
1205;DHT22;592;48.764;9.174;2022-08-03T13:18:04;31.50;76.90
1205;DHT22;592;48.764;9.174;2022-08-03T13:20:32;31.40;77.10
1205;DHT22;592;48.764;9.174;2022-08-03T13:22:59;31.60;77.50
1205;DHT22;592;48.764;9.174;2022-08-03T13:25:26;31.80;76.80
1205;DHT22;592;48.764;9.174;2022-08-03T13:27:52;31.80;76.60
1205;DHT22;592;48.764;9.174;2022-08-03T13:30:19;31.90;75.60
1205;DHT22;592;48.764;9.174;2022-08-03T13:32:46;32.20;76.00
1205;DHT22;592;48.764;9.174;2022-08-03T13:35:13;32.60;77.20
1205;DHT22;592;48.764;9.174;2022-08-03T13:37:41;33.10;76.40
1205;DHT22;592;48.764;9.174;2022-08-03T13:40:08;33.60;75.10
1205;DHT22;592;48.764;9.174;2022-08-03T13:42:35;33.80;72.20
1205;DHT22;592;48.764;9.174;2022-08-03T13:45:03;34.20;72.20
1205;DHT22;592;48.764;9.174;2022-08-03T13:47:30;34.40;72.30
1205;DHT22;592;48.764;9.174;2022-08-03T13:49:57;34.80;70.60
1205;DHT22;592;48.764;9.174;2022-08-03T13:52:24;35.20;69.30
1205;DHT22;592;48.764;9.174;2022-08-03T13:54:52;35.60;69.30
1205;DHT22;592;48.764;9.174;2022-08-03T13:57:18;35.80;68.60
1205;DHT22;592;48.764;9.174;2022-08-03T13:59:45;36.30;69.40
1205;DHT22;592;48.764;9.174;2022-08-03T14:02:12;36.40;66.10
1205;DHT22;592;48.764;9.174;2022-08-03T14:04:38;36.80;65.00
1205;DHT22;592;48.764;9.174;2022-08-03T14:07:05;36.50;64.10
1205;DHT22;592;48.764;9.174;2022-08-03T14:09:32;36.60;64.20
1205;DHT22;592;48.764;9.174;2022-08-03T14:12:00;36.60;63.70
1205;DHT22;592;48.764;9.174;2022-08-03T14:14:27;37.80;65.10
1205;DHT22;592;48.764;9.174;2022-08-03T14:16:53;38.90;62.70
1205;DHT22;592;48.764;9.174;2022-08-03T14:19:20;39.80;60.40
1205;DHT22;592;48.764;9.174;2022-08-03T14:21:47;40.40;57.30
1205;DHT22;592;48.764;9.174;2022-08-03T14:24:13;41.80;58.10
1205;DHT22;592;48.764;9.174;2022-08-03T14:26:40;43.20;57.00
1205;DHT22;592;48.764;9.174;2022-08-03T14:29:08;44.30;54.70
1205;DHT22;592;48.764;9.174;2022-08-03T14:31:35;44.90;53.60
1205;DHT22;592;48.764;9.174;2022-08-03T14:34:02;45.00;52.70
1205;DHT22;592;48.764;9.174;2022-08-03T14:36:29;44.70;49.60
1205;DHT22;592;48.764;9.174;2022-08-03T14:38:55;44.30;50.10
1205;DHT22;592;48.764;9.174;2022-08-03T14:41:22;44.40;49.90
1205;DHT22;592;48.764;9.174;2022-08-03T14:43:49;44.80;50.50
1205;DHT22;592;48.764;9.174;2022-08-03T14:46:17;46.30;49.00
1205;DHT22;592;48.764;9.174;2022-08-03T14:48:43;46.80;47.80
1205;DHT22;592;48.764;9.174;2022-08-03T14:51:10;46.80;47.70
1205;DHT22;592;48.764;9.174;2022-08-03T14:53:37;47.90;48.00
1205;DHT22;592;48.764;9.174;2022-08-03T14:56:04;49.40;47.50
1205;DHT22;592;48.764;9.174;2022-08-03T14:58:31;48.70;44.60
1205;DHT22;592;48.764;9.174;2022-08-03T15:00:57;48.90;44.90
1205;DHT22;592;48.764;9.174;2022-08-03T15:03:25;49.60;44.50
1205;DHT22;592;48.764;9.174;2022-08-03T15:05:54;49.70;43.90
1205;DHT22;592;48.764;9.174;2022-08-03T15:08:22;48.90;44.20
1205;DHT22;592;48.764;9.174;2022-08-03T15:10:49;49.30;43.70
1205;DHT22;592;48.764;9.174;2022-08-03T15:13:16;47.60;44.40
1205;DHT22;592;48.764;9.174;2022-08-03T15:15:43;45.40;45.00
1205;DHT22;592;48.764;9.174;2022-08-03T15:18:10;44.40;45.90
1205;DHT22;592;48.764;9.174;2022-08-03T15:20:38;42.00;47.40
1205;DHT22;592;48.764;9.174;2022-08-03T15:23:05;40.30;48.90
1205;DHT22;592;48.764;9.174;2022-08-03T15:25:32;38.90;49.90
1205;DHT22;592;48.764;9.174;2022-08-03T15:27:58;37.80;52.30
1205;DHT22;592;48.764;9.174;2022-08-03T15:30:25;37.00;53.50
1205;DHT22;592;48.764;9.174;2022-08-03T15:32:51;36.50;54.80
1205;DHT22;592;48.764;9.174;2022-08-03T15:35:18;36.00;54.40
1205;DHT22;592;48.764;9.174;2022-08-03T15:37:46;35.50;55.00
1205;DHT22;592;48.764;9.174;2022-08-03T15:40:13;34.70;55.70
1205;DHT22;592;48.764;9.174;2022-08-03T15:42:40;34.40;56.60
1205;DHT22;592;48.764;9.174;2022-08-03T15:45:07;34.20;57.00
1205;DHT22;592;48.764;9.174;2022-08-03T15:47:34;33.90;57.50
1205;DHT22;592;48.764;9.174;2022-08-03T15:50:00;33.80;58.00
1205;DHT22;592;48.764;9.174;2022-08-03T15:52:27;33.60;58.00
1205;DHT22;592;48.764;9.174;2022-08-03T15:54:55;33.50;58.40
1205;DHT22;592;48.764;9.174;2022-08-03T15:57:22;33.10;58.40
1205;DHT22;592;48.764;9.174;2022-08-03T15:59:49;32.80;58.60
1205;DHT22;592;48.764;9.174;2022-08-03T16:02:16;32.60;59.10
1205;DHT22;592;48.764;9.174;2022-08-03T16:04:43;32.60;59.60
1205;DHT22;592;48.764;9.174;2022-08-03T16:07:09;32.60;59.90
1205;DHT22;592;48.764;9.174;2022-08-03T16:09:36;32.50;59.50
1205;DHT22;592;48.764;9.174;2022-08-03T16:12:04;32.40;60.00
1205;DHT22;592;48.764;9.174;2022-08-03T16:14:31;32.20;60.00
1205;DHT22;592;48.764;9.174;2022-08-03T16:16:58;32.20;60.10
1205;DHT22;592;48.764;9.174;2022-08-03T16:19:24;32.00;60.10
1205;DHT22;592;48.764;9.174;2022-08-03T16:21:52;32.00;60.10
1205;DHT22;592;48.764;9.174;2022-08-03T16:24:19;32.00;60.50
1205;DHT22;592;48.764;9.174;2022-08-03T16:26:45;32.20;61.20
1205;DHT22;592;48.764;9.174;2022-08-03T16:29:13;32.20;60.80
1205;DHT22;592;48.764;9.174;2022-08-03T16:31:40;32.20;60.90
1205;DHT22;592;48.764;9.174;2022-08-03T16:34:08;32.20;60.60
1205;DHT22;592;48.764;9.174;2022-08-03T16:36:35;32.20;60.50
1205;DHT22;592;48.764;9.174;2022-08-03T16:39:02;32.10;60.50
1205;DHT22;592;48.764;9.174;2022-08-03T16:41:29;32.20;60.90
1205;DHT22;592;48.764;9.174;2022-08-03T16:43:55;32.10;60.80
1205;DHT22;592;48.764;9.174;2022-08-03T16:46:23;32.00;60.90
1205;DHT22;592;48.764;9.174;2022-08-03T16:48:50;31.90;61.10
1205;DHT22;592;48.764;9.174;2022-08-03T16:51:17;32.00;61.40
1205;DHT22;592;48.764;9.174;2022-08-03T16:53:45;32.00;61.20
1205;DHT22;592;48.764;9.174;2022-08-03T16:56:11;32.00;60.50
1205;DHT22;592;48.764;9.174;2022-08-03T16:58:38;31.80;60.50
1205;DHT22;592;48.764;9.174;2022-08-03T17:01:05;31.70;60.00
1205;DHT22;592;48.764;9.174;2022-08-03T17:03:33;31.60;60.60
1205;DHT22;592;48.764;9.174;2022-08-03T17:06:03;31.50;60.30
1205;DHT22;592;48.764;9.174;2022-08-03T17:08:31;31.40;60.90
1205;DHT22;592;48.764;9.174;2022-08-03T17:10:57;31.40;61.40
1205;DHT22;592;48.764;9.174;2022-08-03T17:13:24;31.40;61.00
1205;DHT22;592;48.764;9.174;2022-08-03T17:15:52;31.30;62.00
1205;DHT22;592;48.764;9.174;2022-08-03T17:18:19;31.30;61.20
1205;DHT22;592;48.764;9.174;2022-08-03T17:20:51;31.20;61.10
1205;DHT22;592;48.764;9.174;2022-08-03T17:23:29;31.20;60.80
1205;DHT22;592;48.764;9.174;2022-08-03T17:26:02;31.20;61.60
1205;DHT22;592;48.764;9.174;2022-08-03T17:28:35;31.20;61.50
1205;DHT22;592;48.764;9.174;2022-08-03T17:31:03;31.10;62.50
1205;DHT22;592;48.764;9.174;2022-08-03T17:33:45;31.20;63.40
1205;DHT22;592;48.764;9.174;2022-08-03T17:36:15;31.30;64.10
1205;DHT22;592;48.764;9.174;2022-08-03T17:38:45;31.20;63.00
1205;DHT22;592;48.764;9.174;2022-08-03T17:41:13;31.10;64.40
1205;DHT22;592;48.764;9.174;2022-08-03T17:43:40;31.10;63.00
1205;DHT22;592;48.764;9.174;2022-08-03T17:46:07;31.10;63.10
1205;DHT22;592;48.764;9.174;2022-08-03T17:48:34;31.10;62.60
1205;DHT22;592;48.764;9.174;2022-08-03T17:51:06;31.10;62.50
1205;DHT22;592;48.764;9.174;2022-08-03T17:53:37;31.00;62.70
1205;DHT22;592;48.764;9.174;2022-08-03T17:56:14;31.00;63.40
1205;DHT22;592;48.764;9.174;2022-08-03T17:58:50;31.00;64.50
1205;DHT22;592;48.764;9.174;2022-08-03T18:01:24;31.00;64.30
1205;DHT22;592;48.764;9.174;2022-08-03T18:04:10;30.90;64.40
1205;DHT22;592;48.764;9.174;2022-08-03T18:06:38;30.90;64.50
1205;DHT22;592;48.764;9.174;2022-08-03T18:09:10;30.90;65.20
1205;DHT22;592;48.764;9.174;2022-08-03T18:11:41;30.80;65.60
1205;DHT22;592;48.764;9.174;2022-08-03T18:14:14;30.80;65.70
1205;DHT22;592;48.764;9.174;2022-08-03T18:16:43;30.80;65.60
1205;DHT22;592;48.764;9.174;2022-08-03T18:19:11;30.80;66.00
1205;DHT22;592;48.764;9.174;2022-08-03T18:21:39;30.70;66.60
1205;DHT22;592;48.764;9.174;2022-08-03T18:24:10;30.60;66.40
1205;DHT22;592;48.764;9.174;2022-08-03T18:26:36;30.60;67.00
1205;DHT22;592;48.764;9.174;2022-08-03T18:29:03;30.60;67.00
1205;DHT22;592;48.764;9.174;2022-08-03T18:31:30;30.50;66.90
1205;DHT22;592;48.764;9.174;2022-08-03T18:34:01;30.50;67.00
1205;DHT22;592;48.764;9.174;2022-08-03T18:36:29;30.30;66.80
1205;DHT22;592;48.764;9.174;2022-08-03T18:38:58;30.30;67.30
1205;DHT22;592;48.764;9.174;2022-08-03T18:41:27;30.20;67.40
1205;DHT22;592;48.764;9.174;2022-08-03T18:43:54;30.20;68.10
1205;DHT22;592;48.764;9.174;2022-08-03T18:46:32;30.10;68.20
1205;DHT22;592;48.764;9.174;2022-08-03T18:49:05;30.00;68.30
1205;DHT22;592;48.764;9.174;2022-08-03T18:51:37;29.90;68.40
1205;DHT22;592;48.764;9.174;2022-08-03T18:54:06;29.80;68.30
1205;DHT22;592;48.764;9.174;2022-08-03T18:56:42;29.80;68.80
1205;DHT22;592;48.764;9.174;2022-08-03T18:59:17;29.70;68.50
1205;DHT22;592;48.764;9.174;2022-08-03T19:01:49;29.70;69.10
1205;DHT22;592;48.764;9.174;2022-08-03T19:04:24;29.50;69.40
1205;DHT22;592;48.764;9.174;2022-08-03T19:07:03;29.50;69.80
1205;DHT22;592;48.764;9.174;2022-08-03T19:09:36;29.40;69.90
1205;DHT22;592;48.764;9.174;2022-08-03T19:12:12;29.40;70.20
1205;DHT22;592;48.764;9.174;2022-08-03T19:14:44;29.30;70.40
1205;DHT22;592;48.764;9.174;2022-08-03T19:17:12;29.20;70.70
1205;DHT22;592;48.764;9.174;2022-08-03T19:19:43;29.10;71.30
1205;DHT22;592;48.764;9.174;2022-08-03T19:22:11;29.00;71.30
1205;DHT22;592;48.764;9.174;2022-08-03T19:24:38;28.90;73.10
1205;DHT22;592;48.764;9.174;2022-08-03T19:27:09;28.90;73.90
1205;DHT22;592;48.764;9.174;2022-08-03T19:29:43;28.80;74.30
1205;DHT22;592;48.764;9.174;2022-08-03T19:32:13;28.70;73.70
1205;DHT22;592;48.764;9.174;2022-08-03T19:34:40;28.70;73.10
1205;DHT22;592;48.764;9.174;2022-08-03T19:37:09;28.70;72.80
1205;DHT22;592;48.764;9.174;2022-08-03T19:39:38;28.60;73.00
1205;DHT22;592;48.764;9.174;2022-08-03T19:42:06;28.50;72.60
1205;DHT22;592;48.764;9.174;2022-08-03T19:44:40;28.50;72.30
1205;DHT22;592;48.764;9.174;2022-08-03T19:47:09;28.40;72.70
1205;DHT22;592;48.764;9.174;2022-08-03T19:49:39;28.30;72.80
1205;DHT22;592;48.764;9.174;2022-08-03T19:52:08;28.30;72.50
1205;DHT22;592;48.764;9.174;2022-08-03T19:54:37;28.30;71.70
1205;DHT22;592;48.764;9.174;2022-08-03T19:57:06;28.30;70.30
1205;DHT22;592;48.764;9.174;2022-08-03T19:59:35;28.30;69.30
1205;DHT22;592;48.764;9.174;2022-08-03T20:02:05;28.40;68.90
1205;DHT22;592;48.764;9.174;2022-08-03T20:04:32;28.40;69.00
1205;DHT22;592;48.764;9.174;2022-08-03T20:07:00;28.40;68.90
1205;DHT22;592;48.764;9.174;2022-08-03T20:09:27;28.40;68.70
1205;DHT22;592;48.764;9.174;2022-08-03T20:11:54;28.40;68.90
1205;DHT22;592;48.764;9.174;2022-08-03T20:14:21;28.40;68.90
1205;DHT22;592;48.764;9.174;2022-08-03T20:16:48;28.40;69.00
1205;DHT22;592;48.764;9.174;2022-08-03T20:19:17;28.40;69.00
1205;DHT22;592;48.764;9.174;2022-08-03T20:21:46;28.40;69.40
1205;DHT22;592;48.764;9.174;2022-08-03T20:24:18;28.30;68.50
1205;DHT22;592;48.764;9.174;2022-08-03T20:26:49;28.30;68.80
1205;DHT22;592;48.764;9.174;2022-08-03T20:29:21;28.30;68.80
1205;DHT22;592;48.764;9.174;2022-08-03T20:31:50;28.30;69.40
1205;DHT22;592;48.764;9.174;2022-08-03T20:34:18;28.30;68.90
1205;DHT22;592;48.764;9.174;2022-08-03T20:36:45;28.30;69.10
1205;DHT22;592;48.764;9.174;2022-08-03T20:39:11;28.20;69.10
1205;DHT22;592;48.764;9.174;2022-08-03T20:41:39;28.20;70.10
1205;DHT22;592;48.764;9.174;2022-08-03T20:44:06;28.20;69.90
1205;DHT22;592;48.764;9.174;2022-08-03T20:46:33;28.10;70.20
1205;DHT22;592;48.764;9.174;2022-08-03T20:49:00;28.10;69.80
1205;DHT22;592;48.764;9.174;2022-08-03T20:51:29;28.10;70.20
1205;DHT22;592;48.764;9.174;2022-08-03T20:53:57;28.10;70.20
1205;DHT22;592;48.764;9.174;2022-08-03T20:56:25;28.10;70.60
1205;DHT22;592;48.764;9.174;2022-08-03T20:58:53;28.00;70.40
1205;DHT22;592;48.764;9.174;2022-08-03T21:01:20;28.00;70.30
1205;DHT22;592;48.764;9.174;2022-08-03T21:03:47;28.00;70.40
1205;DHT22;592;48.764;9.174;2022-08-03T21:06:17;27.90;70.10
1205;DHT22;592;48.764;9.174;2022-08-03T21:08:47;27.90;70.10
1205;DHT22;592;48.764;9.174;2022-08-03T21:11:17;27.80;70.20
1205;DHT22;592;48.764;9.174;2022-08-03T21:13:49;27.80;70.20
1205;DHT22;592;48.764;9.174;2022-08-03T21:16:18;27.70;70.20
1205;DHT22;592;48.764;9.174;2022-08-03T21:18:49;27.70;70.20
1205;DHT22;592;48.764;9.174;2022-08-03T21:21:17;27.70;70.20
1205;DHT22;592;48.764;9.174;2022-08-03T21:23:48;27.60;70.60
1205;DHT22;592;48.764;9.174;2022-08-03T21:26:16;27.70;70.20
1205;DHT22;592;48.764;9.174;2022-08-03T21:28:44;27.60;70.30
1205;DHT22;592;48.764;9.174;2022-08-03T21:31:12;27.60;70.40
1205;DHT22;592;48.764;9.174;2022-08-03T21:33:39;27.60;70.80
1205;DHT22;592;48.764;9.174;2022-08-03T21:36:06;27.50;70.50
1205;DHT22;592;48.764;9.174;2022-08-03T21:38:33;27.60;70.70
1205;DHT22;592;48.764;9.174;2022-08-03T21:41:02;27.50;71.10
1205;DHT22;592;48.764;9.174;2022-08-03T21:43:29;27.50;71.30
1205;DHT22;592;48.764;9.174;2022-08-03T21:45:57;27.50;71.40
1205;DHT22;592;48.764;9.174;2022-08-03T21:48:26;27.40;71.70
1205;DHT22;592;48.764;9.174;2022-08-03T21:50:53;27.40;71.80
1205;DHT22;592;48.764;9.174;2022-08-03T21:53:22;27.40;71.50
1205;DHT22;592;48.764;9.174;2022-08-03T21:55:54;27.30;71.70
1205;DHT22;592;48.764;9.174;2022-08-03T21:58:26;27.30;71.70
1205;DHT22;592;48.764;9.174;2022-08-03T22:00:54;27.30;71.30
1205;DHT22;592;48.764;9.174;2022-08-03T22:03:24;27.30;71.10
1205;DHT22;592;48.764;9.174;2022-08-03T22:05:51;27.30;70.90
1205;DHT22;592;48.764;9.174;2022-08-03T22:08:18;27.30;71.70
1205;DHT22;592;48.764;9.174;2022-08-03T22:10:46;27.20;71.60
1205;DHT22;592;48.764;9.174;2022-08-03T22:13:14;27.20;71.70
1205;DHT22;592;48.764;9.174;2022-08-03T22:15:42;27.10;73.30
1205;DHT22;592;48.764;9.174;2022-08-03T22:18:10;26.90;76.80
1205;DHT22;592;48.764;9.174;2022-08-03T22:20:36;26.50;79.70
1205;DHT22;592;48.764;9.174;2022-08-03T22:23:05;26.50;80.00
1205;DHT22;592;48.764;9.174;2022-08-03T22:25:34;26.30;79.80
1205;DHT22;592;48.764;9.174;2022-08-03T22:28:05;26.30;79.70
1205;DHT22;592;48.764;9.174;2022-08-03T22:30:33;26.30;79.70
1205;DHT22;592;48.764;9.174;2022-08-03T22:33:03;26.30;80.70
1205;DHT22;592;48.764;9.174;2022-08-03T22:35:31;26.20;80.90
1205;DHT22;592;48.764;9.174;2022-08-03T22:37:59;26.10;81.00
1205;DHT22;592;48.764;9.174;2022-08-03T22:40:27;26.00;81.60
1205;DHT22;592;48.764;9.174;2022-08-03T22:42:54;26.00;82.20
1205;DHT22;592;48.764;9.174;2022-08-03T22:45:21;25.90;82.30
1205;DHT22;592;48.764;9.174;2022-08-03T22:47:48;25.90;82.80
1205;DHT22;592;48.764;9.174;2022-08-03T22:50:17;25.70;83.40
1205;DHT22;592;48.764;9.174;2022-08-03T22:52:44;25.50;82.60
1205;DHT22;592;48.764;9.174;2022-08-03T22:55:12;25.30;82.80
1205;DHT22;592;48.764;9.174;2022-08-03T22:57:40;25.40;83.10
1205;DHT22;592;48.764;9.174;2022-08-03T23:00:10;25.40;82.60
1205;DHT22;592;48.764;9.174;2022-08-03T23:02:38;25.40;83.30
1205;DHT22;592;48.764;9.174;2022-08-03T23:05:08;25.30;83.00
1205;DHT22;592;48.764;9.174;2022-08-03T23:07:38;25.20;83.50
1205;DHT22;592;48.764;9.174;2022-08-03T23:10:08;25.00;84.10
1205;DHT22;592;48.764;9.174;2022-08-03T23:12:36;24.80;84.30
1205;DHT22;592;48.764;9.174;2022-08-03T23:15:05;24.60;85.10